地図

経路データ

SID SEASON NUMBER BASIN SUBBASIN NAME ISO_TIME NATURE LAT LON WMO_WIND WMO_PRES WMO_AGENCY TRACK_TYPE DIST2LAND LANDFALL IFLAG USA_AGENCY USA_ATCF_ID USA_LAT USA_LON USA_RECORD USA_STATUS USA_WIND USA_PRES USA_SSHS USA_R34_NE USA_R34_SE USA_R34_SW USA_R34_NW USA_R50_NE USA_R50_SE USA_R50_SW USA_R50_NW USA_R64_NE USA_R64_SE USA_R64_SW USA_R64_NW USA_POCI USA_ROCI USA_RMW USA_EYE TOKYO_LAT TOKYO_LON TOKYO_GRADE TOKYO_WIND TOKYO_PRES TOKYO_R50_DIR TOKYO_R50_LONG TOKYO_R50_SHORT TOKYO_R30_DIR TOKYO_R30_LONG TOKYO_R30_SHORT TOKYO_LAND CMA_LAT CMA_LON CMA_CAT CMA_WIND CMA_PRES HKO_LAT HKO_LON HKO_CAT HKO_WIND HKO_PRES NEWDELHI_LAT NEWDELHI_LON NEWDELHI_GRADE NEWDELHI_WIND NEWDELHI_PRES NEWDELHI_CI NEWDELHI_DP NEWDELHI_POCI REUNION_LAT REUNION_LON REUNION_TYPE REUNION_WIND REUNION_PRES REUNION_TNUM REUNION_CI REUNION_RMW REUNION_R34_NE REUNION_R34_SE REUNION_R34_SW REUNION_R34_NW REUNION_R50_NE REUNION_R50_SE REUNION_R50_SW REUNION_R50_NW REUNION_R64_NE REUNION_R64_SE REUNION_R64_SW REUNION_R64_NW BOM_LAT BOM_LON BOM_TYPE BOM_WIND BOM_PRES BOM_TNUM BOM_CI BOM_RMW BOM_R34_NE BOM_R34_SE BOM_R34_SW BOM_R34_NW BOM_R50_NE BOM_R50_SE BOM_R50_SW BOM_R50_NW BOM_R64_NE BOM_R64_SE BOM_R64_SW BOM_R64_NW BOM_ROCI BOM_POCI BOM_EYE BOM_POS_METHOD BOM_PRES_METHOD NADI_LAT NADI_LON NADI_CAT NADI_WIND NADI_PRES WELLINGTON_LAT WELLINGTON_LON WELLINGTON_WIND WELLINGTON_PRES DS824_LAT DS824_LON DS824_STAGE DS824_WIND DS824_PRES TD9636_LAT TD9636_LON TD9636_STAGE TD9636_WIND TD9636_PRES TD9635_LAT TD9635_LON TD9635_WIND TD9635_PRES TD9635_ROCI NEUMANN_LAT NEUMANN_LON NEUMANN_CLASS NEUMANN_WIND NEUMANN_PRES MLC_LAT MLC_LON MLC_CLASS MLC_WIND MLC_PRES USA_GUST BOM_GUST BOM_GUST_PER REUNION_GUST REUNION_GUST_PER USA_SEAHGT USA_SEARAD_NE USA_SEARAD_SE USA_SEARAD_SW USA_SEARAD_NW STORM_SPEED STORM_DIR
1975178N28281 1975 49 NA NA AMY 1975-06-27 00:00:00 TS 27.5000 -79.0000 25 1013 hurdat_atl main 122 122 O_____________ hurdat_atl AL021975 27.5000 -79.0000 TD 25 1013 -1 10 2
1975178N28281 1975 49 NA NA AMY 1975-06-27 03:00:00 TS 28.0000 -79.0000 main 144 144 P_____________ AL021975 28.0000 -79.0000 TD 25 1013 -1 10 1
1975178N28281 1975 49 NA NA AMY 1975-06-27 06:00:00 TS 28.5000 -79.0000 25 1013 hurdat_atl main 146 146 O_____________ hurdat_atl AL021975 28.5000 -79.0000 TD 25 1013 -1 10 1
1975178N28281 1975 49 NA NA AMY 1975-06-27 09:00:00 TS 29.0000 -79.0000 main 156 156 P_____________ AL021975 29.0000 -79.0000 TD 25 1013 -1 10 1
1975178N28281 1975 49 NA NA AMY 1975-06-27 12:00:00 TS 29.5000 -79.0000 25 1013 hurdat_atl main 183 183 O_____________ hurdat_atl AL021975 29.5000 -79.0000 TD 25 1013 -1 10 359
1975178N28281 1975 49 NA NA AMY 1975-06-27 15:00:00 TS 30.0000 -79.0148 main 209 209 P_____________ AL021975 30.0000 -79.0148 TD 25 1013 -1 10 1
1975178N28281 1975 49 NA NA AMY 1975-06-27 18:00:00 TS 30.5000 -79.0000 25 1013 hurdat_atl main 230 206 O_____________ hurdat_atl AL021975 30.5000 -79.0000 TD 25 1013 -1 10 5
1975178N28281 1975 49 NA NA AMY 1975-06-27 21:00:00 TS 31.0075 -78.9078 main 206 166 P_____________ AL021975 31.0075 -78.9078 TD 25 1012 -1 10 10
1975178N28281 1975 49 NA NA AMY 1975-06-28 00:00:00 TS 31.5000 -78.8000 25 1012 hurdat_atl main 166 134 O_____________ hurdat_atl AL021975 31.5000 -78.8000 TD 25 1012 -1 10 6
1975178N28281 1975 49 NA NA AMY 1975-06-28 03:00:00 TS 31.9573 -78.7867 main 124 93 P_____________ AL021975 31.9573 -78.7867 TD 25 1012 -1 9 5
1975178N28281 1975 49 NA NA AMY 1975-06-28 06:00:00 TS 32.4000 -78.7000 25 1012 hurdat_atl main 93 78 O_____________ hurdat_atl AL021975 32.4000 -78.7000 TD 25 1012 -1 10 19
1975178N28281 1975 49 NA NA AMY 1975-06-28 09:00:00 TS 32.8649 -78.4177 main 81 66 P_____________ AL021975 32.8649 -78.4177 TD 25 1011 -1 11 33
1975178N28281 1975 49 NA NA AMY 1975-06-28 12:00:00 TS 33.3000 -78.0000 25 1011 hurdat_atl main 66 43 O_____________ hurdat_atl AL021975 33.3000 -78.0000 TD 25 1011 -1 11 42
1975178N28281 1975 49 NA NA AMY 1975-06-28 15:00:00 TS 33.6873 -77.5374 main 51 51 P_____________ AL021975 33.6873 -77.5374 TD 27 1008 -1 11 50
1975178N28281 1975 49 NA NA AMY 1975-06-28 18:00:00 TS 34.0000 -77.0000 30 1006 hurdat_atl main 66 44 O_____________ hurdat_atl AL021975 34.0000 -77.0000 TD 30 1006 -1 11 58
1975178N28281 1975 49 NA NA AMY 1975-06-28 21:00:00 TS 34.2826 -76.4007 main 45 43 P_____________ AL021975 34.2826 -76.4007 TD 32 1005 -1 11 68
1975178N28281 1975 49 NA NA AMY 1975-06-29 00:00:00 TS 34.4000 -75.8000 35 1004 hurdat_atl main 72 72 O_____________ hurdat_atl AL021975 34.4000 -75.8000 TS 35 1004 0 9 92
1975178N28281 1975 49 NA NA AMY 1975-06-29 03:00:00 TS 34.2446 -75.2839 main 120 120 P_____________ AL021975 34.2446 -75.2839 TS 37 1003 0 9 116
1975178N28281 1975 49 NA NA AMY 1975-06-29 06:00:00 TS 34.0000 -74.8000 40 1002 hurdat_atl main 170 170 O_____________ hurdat_atl AL021975 34.0000 -74.8000 TS 40 1002 0 9 115
1975178N28281 1975 49 NA NA AMY 1975-06-29 09:00:00 TS 33.8698 -74.3001 main 214 214 P_____________ AL021975 33.8698 -74.3001 TS 42 1001 0 9 104
1975178N28281 1975 49 NA NA AMY 1975-06-29 12:00:00 TS 33.8000 -73.8000 45 1000 hurdat_atl main 259 259 O_____________ hurdat_atl AL021975 33.8000 -73.8000 TS 45 1000 0 8 99
1975178N28281 1975 49 NA NA AMY 1975-06-29 15:00:00 TS 33.7471 -73.3145 main 304 303 P_____________ AL021975 33.7471 -73.3145 TS 47 999 0 8 90
1975178N28281 1975 49 NA NA AMY 1975-06-29 18:00:00 TS 33.8000 -72.8000 50 998 hurdat_atl main 331 331 O_____________ hurdat_atl AL021975 33.8000 -72.8000 TS 50 998 0 10 78
1975178N28281 1975 49 NA NA AMY 1975-06-29 21:00:00 TS 33.9528 -72.1847 main 361 361 P_____________ AL021975 33.9528 -72.1847 TS 50 998 0 11 63
1975178N28281 1975 49 NA NA AMY 1975-06-30 00:00:00 TS 34.3000 -71.6000 50 998 hurdat_atl main 391 390 O_____________ hurdat_atl AL021975 34.3000 -71.6000 TS 50 998 0 13 41
1975178N28281 1975 49 NA NA AMY 1975-06-30 03:00:00 TS 34.9648 -71.1339 main 407 405 P_____________ AL021975 34.9648 -71.1339 TS 52 998 0 15 27
1975178N28281 1975 49 NA NA AMY 1975-06-30 06:00:00 TS 35.6000 -70.8000 55 998 hurdat_atl main 423 423 O_____________ hurdat_atl AL021975 35.6000 -70.8000 TS 55 998 0 10 26
1975178N28281 1975 49 NA NA AMY 1975-06-30 09:00:00 TS 35.8247 -70.6113 main 440 440 P_____________ AL021975 35.8247 -70.6113 TS 57 992 0 4 39
1975178N28281 1975 49 NA NA AMY 1975-06-30 12:00:00 TS 35.9000 -70.5000 60 987 hurdat_atl main 449 449 O_____________ hurdat_atl AL021975 35.9000 -70.5000 TS 60 987 0 3 40
1975178N28281 1975 49 NA NA AMY 1975-06-30 15:00:00 TS 36.0724 -70.3576 main 459 459 P_____________ AL021975 36.0724 -70.3576 TS 60 987 0 4 39
1975178N28281 1975 49 NA NA AMY 1975-06-30 18:00:00 TS 36.2000 -70.2000 60 987 hurdat_atl main 477 477 O_____________ hurdat_atl AL021975 36.2000 -70.2000 TS 60 987 0 3 62
1975178N28281 1975 49 NA NA AMY 1975-06-30 21:00:00 TS 36.2225 -70.0074 main 495 495 P_____________ AL021975 36.2225 -70.0074 TS 60 985 0 3 90
1975178N28281 1975 49 NA NA AMY 1975-07-01 00:00:00 TS 36.2000 -69.8000 60 984 hurdat_atl main 513 513 O_____________ hurdat_atl AL021975 36.2000 -69.8000 TS 60 984 0 3 95
1975178N28281 1975 49 NA NA AMY 1975-07-01 03:00:00 TS 36.1995 -69.6525 main 522 522 P_____________ AL021975 36.1995 -69.6525 TS 60 984 0 3 90
1975178N28281 1975 49 NA NA AMY 1975-07-01 06:00:00 TS 36.2000 -69.4000 60 984 hurdat_atl main 549 549 O_____________ hurdat_atl AL021975 36.2000 -69.4000 TS 60 984 0 6 93
1975178N28281 1975 49 NA NA AMY 1975-07-01 09:00:00 TS 36.1628 -68.9017 main 593 593 P_____________ AL021975 36.1628 -68.9017 TS 60 984 0 9 90
1975178N28281 1975 49 NA NA AMY 1975-07-01 12:00:00 TS 36.2000 -68.3000 60 984 hurdat_atl main 625 619 O_____________ hurdat_atl AL021975 36.2000 -68.3000 TS 60 984 0 10 76
1975178N28281 1975 49 NA NA AMY 1975-07-01 15:00:00 TS 36.3978 -67.7057 main 622 606 P_____________ AL021975 36.3978 -67.7057 TS 60 984 0 10 61
1975178N28281 1975 49 NA NA AMY 1975-07-01 18:00:00 TS 36.7000 -67.2000 60 984 hurdat_atl main 606 572 O_____________ hurdat_atl AL021975 36.7000 -67.2000 TS 60 984 0 9 42
1975178N28281 1975 49 NA NA AMY 1975-07-01 21:00:00 TS 37.0944 -66.9274 main 576 551 P_____________ AL021975 37.0944 -66.9274 TS 60 984 0 8 30
1975178N28281 1975 49 NA NA AMY 1975-07-02 00:00:00 TS 37.4000 -66.7000 60 984 hurdat_atl main 555 555 O_____________ hurdat_atl AL021975 37.4000 -66.7000 TS 60 984 0 6 57
1975178N28281 1975 49 NA NA AMY 1975-07-02 03:00:00 TS 37.4026 -66.3217 main 573 573 P_____________ AL021975 37.4026 -66.3217 TS 60 984 0 6 99
1975178N28281 1975 49 NA NA AMY 1975-07-02 06:00:00 TS 37.3000 -65.9000 60 984 hurdat_atl main 602 602 O_____________ hurdat_atl AL021975 37.3000 -65.9000 TS 60 984 0 6 100
1975178N28281 1975 49 NA NA AMY 1975-07-02 09:00:00 TS 37.2922 -65.5151 main 622 622 P_____________ AL021975 37.2922 -65.5151 TS 60 982 0 6 90
1975178N28281 1975 49 NA NA AMY 1975-07-02 12:00:00 TS 37.3000 -65.1000 60 981 hurdat_atl main 644 644 O_____________ hurdat_atl AL021975 37.3000 -65.1000 TS 60 981 0 7 92
1975178N28281 1975 49 NA NA AMY 1975-07-02 15:00:00 TS 37.2697 -64.6367 main 672 672 P_____________ AL021975 37.2697 -64.6367 TS 60 983 0 8 90
1975178N28281 1975 49 NA NA AMY 1975-07-02 18:00:00 TS 37.3000 -64.1000 60 986 hurdat_atl main 697 684 O_____________ hurdat_atl AL021975 37.3000 -64.1000 TS 60 986 0 9 78
1975178N28281 1975 49 NA NA AMY 1975-07-02 21:00:00 TS 37.4621 -63.4950 main 684 676 P_____________ AL021975 37.4621 -63.4950 TS 57 986 0 11 69
1975178N28281 1975 49 NA NA AMY 1975-07-03 00:00:00 TS 37.7000 -62.8000 55 986 hurdat_atl main 678 673 O_____________ hurdat_atl AL021975 37.7000 -62.8000 TS 55 986 0 12 70
1975178N28281 1975 49 NA NA AMY 1975-07-03 03:00:00 TS 37.8974 -62.0209 main 681 678 P_____________ AL021975 37.8974 -62.0209 TS 55 986 0 14 68
1975178N28281 1975 49 NA NA AMY 1975-07-03 06:00:00 TS 38.2000 -61.2000 55 986 hurdat_atl main 682 671 O_____________ hurdat_atl AL021975 38.2000 -61.2000 TS 55 986 0 15 58
1975178N28281 1975 49 NA NA AMY 1975-07-03 09:00:00 TS 38.6970 -60.4000 main 672 655 P_____________ AL021975 38.6970 -60.4000 TS 55 986 0 17 49
1975178N28281 1975 49 NA NA AMY 1975-07-03 12:00:00 TS 39.3000 -59.6000 55 986 hurdat_atl main 655 624 O_____________ hurdat_atl AL021975 39.3000 -59.6000 TS 55 986 0 16 45
1975178N28281 1975 49 NA NA AMY 1975-07-03 15:00:00 TS 39.8288 -58.9117 main 626 576 P_____________ AL021975 39.8288 -58.9117 TS 52 986 0 17 46
1975178N28281 1975 49 NA NA AMY 1975-07-03 18:00:00 TS 40.5000 -58.0000 50 986 hurdat_atl main 580 554 O_____________ hurdat_atl AL021975 40.5000 -58.0000 TS 50 986 0 24 48
1975178N28281 1975 49 NA NA AMY 1975-07-03 21:00:00 TS 41.4422 -56.5229 main 562 477 P_____________ AL021975 41.4422 -56.5229 TS 50 986 0 31 50
1975178N28281 1975 49 NA NA AMY 1975-07-04 00:00:00 TS 42.5000 -54.8000 50 986 hurdat_atl main 465 355 O_____________ hurdat_atl AL021975 42.5000 -54.8000 TS 50 986 0 32 50
1975178N28281 1975 49 NA NA AMY 1975-07-04 03:00:00 TS 43.4592 -53.2197 main 344 267 P_____________ AL021975 43.4592 -53.2197 TS 50 986 0 31 49
1975178N28281 1975 49 NA NA AMY 1975-07-04 06:00:00 TS 44.5000 -51.6000 50 986 hurdat_atl main 264 247 O_____________ hurdat_atl AL021975 44.5000 -51.6000 TS 50 986 0 33 47
1975178N28281 1975 49 NA NA AMY 1975-07-04 09:00:00 TS 45.7067 -49.8612 main 266 266 P_____________ AL021975 45.7067 -49.8612 TS 47 990 0 35 45
1975178N28281 1975 49 NA NA AMY 1975-07-04 12:00:00 ET 47.0000 -48.0000 45 995 hurdat_atl main 350 O_____________ hurdat_atl AL021975 47.0000 -48.0000 EX 45 995 -4 36 44

IBTrACS Databaseについて

本データベースは、米国NOAAが公開する1842年以降の世界の熱帯低気圧のベストトラックデータアーカイブInternational Best Track Archive for Climate Stewardship (IBTrACS)を、ウェブで閲覧しやすい形式に変換したものです。

最終更新日:2021-11-26